Time;durP1;ratioP1;P1;durP2;ratioP2;P2;SDS_P1;SDS_P2;PMS_P1;PMS_P2;Temp;Humidity;BMP_temperature;BMP_pressure;BME280_temperature;BME280_humidity;BME280_pressure;Samples;Min_cycle;Max_cycle;Signal;HPM_P1;HPM_P2
2023/04/10 07:58:35;;;;;;;;;;;;;;;11.45;60.98;97369.47;4197544;27;1381520;-75
2023/04/10 08:00:39;;;;;;;;;;;;;;;11.76;60.21;97361.25;4230760;28;6313;-75
2023/04/10 08:02:42;;;;;;;;;;;;;;;12.01;59.98;97362.59;4225790;28;5605;-76
2023/04/10 08:04:45;;;;;;;;;;;;;;;12.20;59.39;97364.59;4232906;28;5648;-76
2023/04/10 08:06:49;;;;;;;;;;;;;;;12.34;59.05;97359.44;4230461;28;5601;-76
2023/04/10 08:08:52;;;;;;;;;;;;;;;12.38;58.72;97366.84;4226783;28;5717;-76
2023/04/10 08:10:55;;;;;;;;;;;;;;;12.46;58.88;97357.94;4233001;28;5617;-76
2023/04/10 08:12:58;;;;;;;;;;;;;;;12.55;58.78;97362.06;4232535;28;5639;-76
2023/04/10 08:15:02;;;;;;;;;;;;;;;12.65;58.32;97362.56;4228266;28;5734;-77
2023/04/10 08:17:05;;;;;;;;;;;;;;;12.75;58.17;97351.63;4228601;28;5743;-76
2023/04/10 08:19:08;;;;;;;;;;;;;;;12.84;58.09;97361.06;4211500;28;5753;-76
2023/04/10 08:21:11;;;;;;;;;;;;;;;12.93;57.88;97359.91;4231547;28;5726;-77
2023/04/10 08:23:14;;;;;;;;;;;;;;;12.98;57.63;97356.66;4228860;28;5710;-77
2023/04/10 08:25:22;;;;;;;;;;;;;;;12.99;57.61;97353.81;4229197;28;5766;-77
2023/04/10 08:27:25;;;;;;;;;;;;;;;13.02;57.70;97357.91;4220882;28;5715;-77
2023/04/10 08:29:28;;;;;;;;;;;;;;;13.04;57.59;97346.13;4220842;28;5770;-76
2023/04/10 08:31:32;;;;;;;;;;;;;;;13.08;57.62;97355.31;4226261;28;5651;-77
2023/04/10 08:33:35;;;;;;;;;;;;;;;13.19;57.52;97358.47;4218647;28;5783;-77
2023/04/10 08:35:38;;;;;;;;;;;;;;;13.24;57.15;97356.84;4218166;28;5535;-77
2023/04/10 08:37:41;;;;;;;;;;;;;;;13.30;56.69;97356.09;4217912;28;5703;-77
2023/04/10 08:39:47;;;;;;;;;;;;;;;13.30;56.88;97355.25;4223019;28;5608;-78
2023/04/10 08:41:51;;;;;;;;;;;;;;;13.32;56.79;97354.03;4225389;28;5827;-77
2023/04/10 08:43:54;;;;;;;;;;;;;;;13.38;56.66;97363.91;4221383;28;5722;-77
2023/04/10 08:45:57;;;;;;;;;;;;;;;13.38;56.84;97361.25;4225678;28;5723;-77
2023/04/10 08:48:04;;;;;;;;;;;;;;;13.44;56.26;97358.78;4230888;28;6380;-77
2023/04/10 08:50:11;;;;;;;;;;;;;;;13.46;56.58;97362.06;4231317;28;5733;-77
2023/04/10 08:52:17;;;;;;;;;;;;;;;13.49;56.23;97351.06;4222761;28;5645;-77
2023/04/10 08:54:27;;;;;;;;;;;;;;;13.55;56.05;97358.22;4231490;28;5715;-77
2023/04/10 08:56:32;;;;;;;;;;;;;;;13.55;55.79;97355.56;4223409;28;5088;-78
2023/04/10 08:58:36;;;;;;;;;;;;;;;13.58;55.79;97363.16;4217322;28;5684;-77
2023/04/10 09:00:39;;;;;;;;;;;;;;;13.58;55.79;97356.00;4210403;28;5714;-77
2023/04/10 09:02:42;;;;;;;;;;;;;;;13.58;55.66;97347.22;4212389;28;5723;-77
2023/04/10 09:04:49;;;;;;;;;;;;;;;13.58;55.33;97348.03;4216367;28;5727;-77
2023/04/10 09:06:53;;;;;;;;;;;;;;;13.59;55.26;97355.00;4195173;28;6749;-78
2023/04/10 09:08:58;;;;;;;;;;;;;;;13.60;55.24;97353.97;4212390;28;5625;-78
2023/04/10 09:11:01;;;;;;;;;;;;;;;13.59;55.10;97356.81;4193701;28;5739;-77
2023/04/10 09:13:05;;;;;;;;;;;;;;;13.58;55.12;97360.50;4210720;28;5684;-65
2023/04/10 09:15:08;;;;;;;;;;;;;;;13.59;54.93;97354.16;4210917;28;5108;-63
2023/04/10 09:17:13;;;;;;;;;;;;;;;13.63;54.42;97358.91;4215127;28;5740;-63
2023/04/10 09:19:29;;;;;;;;;;;;;;;13.66;54.24;97347.03;4212888;28;5616;-63
2023/04/10 09:21:33;;;;;;;;;;;;;;;13.63;54.42;97344.78;4210077;28;5746;-63
2023/04/10 09:23:36;;;;;;;;;;;;;;;13.65;54.23;97348.06;4214367;28;5806;-63
2023/04/10 09:25:39;;;;;;;;;;;;;;;13.67;53.69;97348.69;4212152;28;5629;-63
2023/04/10 09:27:42;;;;;;;;;;;;;;;13.68;53.80;97347.66;4217371;28;5715;-63
2023/04/10 09:29:47;;;;;;;;;;;;;;;13.70;53.43;97348.28;4211586;28;5108;-63
2023/04/10 09:31:50;;;;;;;;;;;;;;;13.74;53.43;97354.03;4216031;28;5688;-63
2023/04/10 09:34:07;;;;;;;;;;;;;;;13.72;53.29;97348.91;4217694;28;5729;-63
2023/04/10 09:36:13;;;;;;;;;;;;;;;13.73;53.00;97344.41;4204181;28;5716;-63
2023/04/10 09:38:18;;;;;;;;;;;;;;;13.77;52.89;97340.34;4210438;28;5720;-63
2023/04/10 09:40:23;;;;;;;;;;;;;;;13.83;52.56;97334.22;4210507;28;5770;-63
2023/04/10 09:42:31;;;;;;;;;;;;;;;13.87;52.60;97336.28;4216352;28;5697;-63
2023/04/10 09:44:36;;;;;;;;;;;;;;;13.91;52.60;97337.50;4217336;28;5632;-63
2023/04/10 09:46:39;;;;;;;;;;;;;;;13.91;52.21;97334.84;4211517;28;5088;-63
2023/04/10 09:48:55;;;;;;;;;;;;;;;13.88;51.92;97340.56;4204897;28;5802;-63
2023/04/10 09:50:58;;;;;;;;;;;;;;;13.90;52.13;97337.72;4210009;28;5685;-63
2023/04/10 09:53:01;;;;;;;;;;;;;;;13.95;52.17;97341.41;4211587;28;5699;-63
2023/04/10 09:55:07;;;;;;;;;;;;;;;13.99;51.63;97329.34;4213456;28;6408;-64
2023/04/10 09:57:11;;;;;;;;;;;;;;;14.05;51.94;97332.25;4211631;28;5719;-63
2023/04/10 09:59:14;;;;;;;;;;;;;;;14.10;51.66;97327.13;4208859;28;5813;-63
2023/04/10 10:01:17;;;;;;;;;;;;;;;14.13;51.68;97329.38;4208722;28;5627;-63
2023/04/10 10:03:20;;;;;;;;;;;;;;;14.19;51.35;97328.56;4210327;28;5704;-63
2023/04/10 10:05:29;;;;;;;;;;;;;;;14.27;51.37;97331.06;4216247;28;5820;-63
2023/04/10 10:07:32;;;;;;;;;;;;;;;14.31;51.17;97320.81;4216716;28;6468;-63
2023/04/10 10:09:36;;;;;;;;;;;;;;;14.32;50.99;97317.94;4214043;28;5708;-64
2023/04/10 10:11:41;;;;;;;;;;;;;;;14.37;51.06;97319.97;4207379;28;5722;-64
2023/04/10 10:13:48;;;;;;;;;;;;;;;14.41;50.82;97314.06;4216987;28;5632;-64
2023/04/10 10:15:59;;;;;;;;;;;;;;;14.45;50.57;97315.31;4217044;28;5818;-64
2023/04/10 10:18:07;;;;;;;;;;;;;;;14.48;50.41;97314.91;4215608;28;5708;-63
2023/04/10 10:20:11;;;;;;;;;;;;;;;14.51;50.36;97313.69;4207508;28;5743;-64
2023/04/10 10:22:14;;;;;;;;;;;;;;;14.55;50.48;97299.75;4207274;28;5663;-63
2023/04/10 10:24:20;;;;;;;;;;;;;;;14.61;50.36;97302.63;4204474;28;5726;-64
2023/04/10 10:26:24;;;;;;;;;;;;;;;14.61;50.43;97305.28;4213318;28;5876;-64
2023/04/10 10:28:31;;;;;;;;;;;;;;;14.68;50.47;97300.78;4211917;28;5696;-64
2023/04/10 10:30:36;;;;;;;;;;;;;;;14.72;49.86;97307.31;4203578;28;5748;-64
2023/04/10 10:32:40;;;;;;;;;;;;;;;14.70;49.90;97298.72;4215005;28;5621;-64
2023/04/10 10:34:44;;;;;;;;;;;;;;;14.71;49.74;97290.53;4212356;28;5696;-64
2023/04/10 10:36:47;;;;;;;;;;;;;;;14.75;49.60;97290.94;4213093;28;5703;-63
2023/04/10 10:38:56;;;;;;;;;;;;;;;14.77;49.78;97291.56;4215204;28;5092;-63
2023/04/10 10:41:06;;;;;;;;;;;;;;;14.79;49.66;97292.16;4210823;28;5625;-64
2023/04/10 10:43:17;;;;;;;;;;;;;;;14.84;49.54;97292.38;4207102;28;6360;-64
2023/04/10 10:45:30;;;;;;;;;;;;;;;14.85;49.48;97286.84;4210748;28;5692;-64
2023/04/10 10:47:38;;;;;;;;;;;;;;;14.88;49.42;97282.13;4209079;28;5632;-63
2023/04/10 10:49:55;;;;;;;;;;;;;;;14.92;49.32;97286.00;4214699;28;5949;-64
2023/04/10 10:51:58;;;;;;;;;;;;;;;14.92;49.11;97280.66;4206814;28;5898;-63
2023/04/10 10:54:01;;;;;;;;;;;;;;;14.92;49.20;97281.47;4212332;28;5738;-64
2023/04/10 10:56:40;;;;;;;;;;;;;;;14.96;49.26;97277.41;4211456;28;5236;-64
2023/04/10 10:58:47;;;;;;;;;;;;;;;15.04;49.02;97276.31;4205199;28;5616;-64
2023/04/10 11:01:07;;;;;;;;;;;;;;;15.10;48.83;97276.31;4187422;28;5997;-64
2023/04/10 11:03:28;;;;;;;;;;;;;;;15.12;48.90;97274.25;4209601;28;5758;-63
2023/04/10 11:05:50;;;;;;;;;;;;;;;15.19;48.54;97286.75;4205515;28;5733;-64
2023/04/10 11:08:09;;;;;;;;;;;;;;;15.23;48.73;97282.63;4211555;28;5664;-64
2023/04/10 11:10:12;;;;;;;;;;;;;;;15.25;48.29;97278.72;4213409;28;7048;-63
2023/04/10 11:12:15;;;;;;;;;;;;;;;15.28;48.32;97272.16;4211948;28;5684;-63
2023/04/10 11:14:20;;;;;;;;;;;;;;;15.29;48.14;97277.28;4209359;28;5807;-64
2023/04/10 11:16:42;;;;;;;;;;;;;;;15.31;48.17;97277.88;4208214;28;5771;-63
2023/04/10 11:19:06;;;;;;;;;;;;;;;15.38;48.24;97277.84;4204389;28;5835;-64
2023/04/10 11:21:19;;;;;;;;;;;;;;;15.40;47.87;97279.28;4181039;28;5856;-64
2023/04/10 11:23:22;;;;;;;;;;;;;;;15.44;47.95;97277.00;4215190;28;5692;-64
2023/04/10 11:25:46;;;;;;;;;;;;;;;15.48;47.76;97288.06;4213366;28;5708;-64
2023/04/10 11:27:48;;;;;;;;;;;;;;;15.49;47.55;97282.50;4208117;28;5845;-63
2023/04/10 11:29:51;;;;;;;;;;;;;;;15.52;47.35;97284.78;4207510;28;5855;-64
2023/04/10 11:31:58;;;;;;;;;;;;;;;15.53;47.61;97283.75;4212404;28;5730;-64
2023/04/10 11:34:02;;;;;;;;;;;;;;;15.56;47.47;97277.97;4207675;28;5605;-64
2023/04/10 11:36:06;;;;;;;;;;;;;;;15.58;47.40;97277.75;4207007;28;5704;-63
2023/04/10 11:38:14;;;;;;;;;;;;;;;15.61;47.25;97282.69;4208626;28;5632;-63
2023/04/10 11:40:17;;;;;;;;;;;;;;;15.62;46.94;97284.31;4214613;28;5597;-63
2023/04/10 11:42:20;;;;;;;;;;;;;;;15.60;47.03;97273.88;4202745;28;5725;-63
2023/04/10 11:44:30;;;;;;;;;;;;;;;15.59;46.88;97272.22;4210879;28;5773;-63
2023/04/10 11:46:36;;;;;;;;;;;;;;;15.63;46.95;97267.34;4209273;28;6445;-63
2023/04/10 11:48:41;;;;;;;;;;;;;;;15.67;46.63;97265.84;4203314;28;5768;-64
2023/04/10 11:50:44;;;;;;;;;;;;;;;15.69;46.53;97256.63;4209513;28;5708;-65
2023/04/10 11:52:49;;;;;;;;;;;;;;;15.72;46.56;97244.69;4203651;28;5912;-64
2023/04/10 11:54:52;;;;;;;;;;;;;;;15.75;46.31;97248.81;4205916;28;5855;-64
2023/04/10 11:56:59;;;;;;;;;;;;;;;15.75;46.26;97238.16;4210604;28;5628;-64
2023/04/10 11:59:06;;;;;;;;;;;;;;;15.77;46.15;97241.41;4194380;28;5119;-64
2023/04/10 12:01:13;;;;;;;;;;;;;;;15.81;46.05;97250.59;4207712;28;5753;-64
2023/04/10 12:03:16;;;;;;;;;;;;;;;15.78;46.08;97248.38;4210901;28;5636;-64
2023/04/10 12:05:23;;;;;;;;;;;;;;;15.76;45.88;97245.09;4201076;28;5827;-64
2023/04/10 12:07:28;;;;;;;;;;;;;;;15.77;45.70;97246.75;4202375;28;5655;-64
2023/04/10 12:09:34;;;;;;;;;;;;;;;15.75;45.89;97248.81;4208305;28;5905;-64
2023/04/10 12:11:48;;;;;;;;;;;;;;;15.73;45.68;97244.47;4207183;28;7246;-64
2023/04/10 12:13:53;;;;;;;;;;;;;;;15.77;45.87;97249.41;4202764;28;5905;-64
2023/04/10 12:16:00;;;;;;;;;;;;;;;15.75;45.63;97241.63;4207275;28;5712;-63
2023/04/10 12:18:04;;;;;;;;;;;;;;;15.76;45.49;97245.09;4207159;28;5855;-65
2023/04/10 12:20:07;;;;;;;;;;;;;;;15.77;45.44;97250.22;4190894;28;5765;-65
2023/04/10 12:22:13;;;;;;;;;;;;;;;15.79;45.53;97250.00;4203575;28;6329;-65
2023/04/10 12:24:43;;;;;;;;;;;;;;;15.81;45.54;97242.59;4208936;28;5907;-64
2023/04/10 12:26:48;;;;;;;;;;;;;;;15.88;45.36;97246.06;4210769;28;6321;-64
2023/04/10 12:28:53;;;;;;;;;;;;;;;15.90;45.38;97235.97;4206569;28;5981;-64
2023/04/10 12:30:56;;;;;;;;;;;;;;;15.91;45.46;97235.75;4199689;28;5734;-64
2023/04/10 12:33:02;;;;;;;;;;;;;;;15.95;45.45;97236.94;4206003;28;5605;-63
2023/04/10 12:35:06;;;;;;;;;;;;;;;15.97;45.37;97236.75;4217687;28;5601;-64
2023/04/10 12:37:09;;;;;;;;;;;;;;;15.97;45.06;97226.91;4213736;28;5854;-64
2023/04/10 12:39:25;;;;;;;;;;;;;;;16.04;45.20;97231.38;4212623;28;5619;-64
2023/04/10 12:41:32;;;;;;;;;;;;;;;16.07;45.21;97226.41;4218665;28;5620;-66
2023/04/10 12:43:37;;;;;;;;;;;;;;;16.10;45.13;97212.66;4212055;28;5637;-64
2023/04/10 12:45:44;;;;;;;;;;;;;;;16.11;45.04;97211.63;4211471;28;5619;-64
2023/04/10 12:47:52;;;;;;;;;;;;;;;16.15;44.81;97202.13;4211017;28;5620;-63
2023/04/10 12:50:09;;;;;;;;;;;;;;;16.18;44.95;97206.22;4216594;28;5639;-64
2023/04/10 12:52:23;;;;;;;;;;;;;;;16.21;45.01;97205.81;4207403;28;5613;-64
2023/04/10 12:54:32;;;;;;;;;;;;;;;16.25;44.77;97204.31;4211377;28;5637;-65
2023/04/10 12:56:42;;;;;;;;;;;;;;;16.30;44.83;97204.47;4211429;28;5712;-64
2023/04/10 12:58:46;;;;;;;;;;;;;;;16.28;44.85;97204.69;4211048;28;7105;-63
2023/04/10 13:00:50;;;;;;;;;;;;;;;16.31;44.77;97200.78;4211262;28;5092;-65
2023/04/10 13:02:53;;;;;;;;;;;;;;;16.30;44.91;97197.28;4211152;28;5474;-64
2023/04/10 13:04:58;;;;;;;;;;;;;;;16.33;44.70;97192.56;4211109;28;7679;-64
2023/04/10 13:07:01;;;;;;;;;;;;;;;16.30;44.63;97183.94;4210926;28;5631;-66
2023/04/10 13:09:05;;;;;;;;;;;;;;;16.33;44.59;97180.03;4211188;28;5666;-64
2023/04/10 13:11:10;;;;;;;;;;;;;;;16.38;44.57;97188.19;4211168;28;5623;-65
2023/04/10 13:13:16;;;;;;;;;;;;;;;16.42;44.21;97181.38;4217002;28;6310;-64
2023/04/10 13:15:20;;;;;;;;;;;;;;;16.45;44.35;97175.59;4211772;28;5628;-64
2023/04/10 13:17:25;;;;;;;;;;;;;;;16.46;44.07;97171.91;4210855;28;5644;-65
2023/04/10 13:19:28;;;;;;;;;;;;;;;16.49;44.13;97181.31;4211457;28;6557;-65
2023/04/10 13:21:32;;;;;;;;;;;;;;;16.52;44.08;97173.66;4210971;28;5647;-65
2023/04/10 13:23:36;;;;;;;;;;;;;;;16.56;43.96;97171.38;4185060;28;5737;-64
2023/04/10 13:25:42;;;;;;;;;;;;;;;16.59;43.84;97169.06;4210801;28;5621;-64
2023/04/10 13:27:47;;;;;;;;;;;;;;;16.62;43.96;97169.66;4210868;28;5625;-65
2023/04/10 13:29:51;;;;;;;;;;;;;;;16.64;44.00;97173.75;4202591;28;5647;-65
2023/04/10 13:31:54;;;;;;;;;;;;;;;16.64;43.89;97168.41;4192846;28;6448;-65
2023/04/10 13:33:57;;;;;;;;;;;;;;;16.68;43.78;97169.63;4210423;28;5623;-64
2023/04/10 13:36:00;;;;;;;;;;;;;;;16.69;43.69;97171.28;4214789;28;6317;-64
2023/04/10 13:38:04;;;;;;;;;;;;;;;16.68;43.69;97169.63;4206440;28;6344;-65
2023/04/10 13:40:08;;;;;;;;;;;;;;;16.73;43.73;97171.63;4207205;28;5604;-65
2023/04/10 13:42:11;;;;;;;;;;;;;;;16.74;43.65;97166.06;4219253;28;5625;-64
2023/04/10 13:44:16;;;;;;;;;;;;;;;16.75;43.67;97170.38;4210668;28;5724;-65
2023/04/10 13:46:19;;;;;;;;;;;;;;;16.77;43.40;97172.84;4210404;28;5707;-64
2023/04/10 13:48:22;;;;;;;;;;;;;;;16.77;43.62;97168.31;4210359;28;5835;-64
2023/04/10 13:50:40;;;;;;;;;;;;;;;16.78;43.53;97169.94;4203064;28;5632;-63
2023/04/10 13:52:43;;;;;;;;;;;;;;;16.81;43.42;97168.66;4210412;28;5683;-64
2023/04/10 13:54:47;;;;;;;;;;;;;;;16.82;43.45;97170.28;4210547;28;5683;-64
2023/04/10 13:56:53;;;;;;;;;;;;;;;16.83;43.31;97166.59;4207579;28;5619;-63
2023/04/10 13:58:57;;;;;;;;;;;;;;;16.87;43.11;97165.94;4184452;28;5994;-65
2023/04/10 14:01:02;;;;;;;;;;;;;;;16.86;43.33;97179.47;4184306;28;5650;-65
2023/04/10 14:03:08;;;;;;;;;;;;;;;16.88;43.33;97174.75;4185133;28;5703;-66
2023/04/10 14:05:12;;;;;;;;;;;;;;;16.87;43.22;97176.63;4185357;28;6425;-65
2023/04/10 14:07:16;;;;;;;;;;;;;;;16.86;43.29;97174.97;4185483;28;5782;-64
2023/04/10 14:09:20;;;;;;;;;;;;;;;16.86;43.17;97182.16;4185127;28;5719;-64
2023/04/10 14:11:23;;;;;;;;;;;;;;;16.83;43.29;97182.59;4185130;28;5836;-65
2023/04/10 14:13:26;;;;;;;;;;;;;;;16.84;43.18;97176.22;4185154;28;5715;-64
2023/04/10 14:15:30;;;;;;;;;;;;;;;16.83;43.06;97175.41;4185044;28;5727;-64
2023/04/10 14:17:34;;;;;;;;;;;;;;;16.83;43.18;97172.75;4185029;28;5711;-64
2023/04/10 14:19:38;;;;;;;;;;;;;;;16.82;43.10;97167.63;4185087;28;5767;-64
2023/04/10 14:21:43;;;;;;;;;;;;;;;16.80;43.11;97167.84;4183592;28;5755;-64
2023/04/10 14:23:46;;;;;;;;;;;;;;;16.82;43.08;97170.28;4184839;28;5723;-64
2023/04/10 14:25:50;;;;;;;;;;;;;;;16.81;42.89;97163.34;4184786;28;5839;-64
2023/04/10 14:27:58;;;;;;;;;;;;;;;16.77;43.02;97162.16;4185056;28;5712;-64
2023/04/10 14:30:03;;;;;;;;;;;;;;;16.82;42.79;97160.44;4184734;28;6390;-64
2023/04/10 14:32:07;;;;;;;;;;;;;;;16.83;42.71;97156.72;4185003;28;5851;-64
2023/04/10 14:34:11;;;;;;;;;;;;;;;16.83;42.82;97151.38;4184735;28;5814;-65
2023/04/10 14:36:15;;;;;;;;;;;;;;;16.87;42.84;97157.06;4184893;28;5798;-64
2023/04/10 14:38:20;;;;;;;;;;;;;;;16.87;42.66;97157.06;4183441;28;6889;-64
2023/04/10 14:40:25;;;;;;;;;;;;;;;16.88;42.59;97162.22;4183496;28;5655;-65
2023/04/10 14:42:28;;;;;;;;;;;;;;;16.88;42.38;97161.41;4184657;28;5715;-64
2023/04/10 14:44:31;;;;;;;;;;;;;;;16.85;42.42;97154.63;4184673;28;5712;-64
2023/04/10 14:46:34;;;;;;;;;;;;;;;16.80;42.45;97146.50;4176343;28;5838;-63
2023/04/10 14:48:38;;;;;;;;;;;;;;;16.75;42.54;97151.66;4184185;28;5810;-63
2023/04/10 14:50:43;;;;;;;;;;;;;;;16.72;42.52;97143.31;4184761;28;5715;-64
2023/04/10 14:52:53;;;;;;;;;;;;;;;16.68;42.39;97137.59;4183400;28;7556;-63
2023/04/10 14:54:59;;;;;;;;;;;;;;;16.67;42.66;97137.81;4184540;28;5711;-63
2023/04/10 14:57:03;;;;;;;;;;;;;;;16.66;42.60;97139.66;4185600;28;5711;-63
2023/04/10 14:59:07;;;;;;;;;;;;;;;16.64;42.73;97128.38;4209323;28;5623;-63
2023/04/10 15:01:12;;;;;;;;;;;;;;;16.64;42.78;97135.56;4208868;28;5628;-65
2023/04/10 15:03:15;;;;;;;;;;;;;;;16.60;42.76;97127.19;4209462;28;5811;-65
2023/04/10 15:05:21;;;;;;;;;;;;;;;16.64;42.91;97131.03;4209452;28;5700;-65
2023/04/10 15:07:27;;;;;;;;;;;;;;;16.62;42.74;97126.97;4216929;28;5653;-64
2023/04/10 15:09:32;;;;;;;;;;;;;;;16.65;42.71;97122.00;4191158;28;5739;-63
2023/04/10 15:11:35;;;;;;;;;;;;;;;16.65;42.56;97123.84;4209188;28;6383;-63
2023/04/10 15:13:38;;;;;;;;;;;;;;;16.65;42.66;97122.00;4209165;28;5630;-63
2023/04/10 15:15:41;;;;;;;;;;;;;;;16.66;42.73;97114.81;4216504;28;5612;-63
2023/04/10 15:17:43;;;;;;;;;;;;;;;16.65;42.84;97110.50;4208914;28;5664;-63
2023/04/10 15:19:46;;;;;;;;;;;;;;;16.67;42.53;97113.78;4208872;28;5825;-63
2023/04/10 15:21:50;;;;;;;;;;;;;;;16.66;42.54;97109.47;4209154;28;5803;-63
2023/04/10 15:23:54;;;;;;;;;;;;;;;16.67;42.48;97108.44;4208974;28;7009;-64
2023/04/10 15:25:58;;;;;;;;;;;;;;;16.65;42.62;97110.50;4209144;28;5783;-64
2023/04/10 15:28:01;;;;;;;;;;;;;;;16.66;42.61;97102.28;4195419;28;5779;-63
2023/04/10 15:30:06;;;;;;;;;;;;;;;16.70;42.46;97105.34;4209121;28;5605;-64
2023/04/10 15:32:09;;;;;;;;;;;;;;;16.67;42.51;97098.56;4208918;28;5742;-64
2023/04/10 15:34:16;;;;;;;;;;;;;;;16.65;42.34;97100.66;4202952;28;5698;-65
2023/04/10 15:36:19;;;;;;;;;;;;;;;16.66;42.58;97107.63;4209034;28;5705;-63
2023/04/10 15:38:24;;;;;;;;;;;;;;;16.68;42.44;97105.56;4208597;28;5748;-63
2023/04/10 15:40:29;;;;;;;;;;;;;;;16.68;42.33;97094.91;4207643;28;5816;-63
2023/04/10 15:42:36;;;;;;;;;;;;;;;16.70;42.32;97105.34;4202541;28;5827;-64
2023/04/10 15:44:39;;;;;;;;;;;;;;;16.69;42.26;97107.19;4201201;28;5743;-63
2023/04/10 15:46:42;;;;;;;;;;;;;;;16.68;42.44;97105.56;4214802;28;5848;-63
2023/04/10 15:48:45;;;;;;;;;;;;;;;16.68;42.33;97108.25;4207370;28;5736;-64
2023/04/10 15:50:48;;;;;;;;;;;;;;;16.68;42.48;97105.56;4212679;28;5612;-64
2023/04/10 15:52:51;;;;;;;;;;;;;;;16.69;42.28;97098.38;4206677;28;5807;-63
2023/04/10 15:54:55;;;;;;;;;;;;;;;16.68;42.32;97096.75;4206957;28;5718;-64
2023/04/10 15:57:02;;;;;;;;;;;;;;;16.67;42.37;97098.56;4203618;28;5692;-64
2023/04/10 15:59:06;;;;;;;;;;;;;;;16.68;42.15;97099.41;4213873;28;5613;-64
2023/04/10 16:01:13;;;;;;;;;;;;;;;16.63;42.22;97089.38;4206793;28;5739;-64
2023/04/10 16:03:16;;;;;;;;;;;;;;;16.64;42.32;97096.34;4206388;28;5631;-63
2023/04/10 16:05:19;;;;;;;;;;;;;;;16.64;42.26;97096.34;4212624;28;5609;-64
2023/04/10 16:07:22;;;;;;;;;;;;;;;16.63;42.27;97097.38;4207409;28;5730;-64
2023/04/10 16:09:25;;;;;;;;;;;;;;;16.62;42.38;97098.41;4209623;28;5707;-64
2023/04/10 16:11:28;;;;;;;;;;;;;;;16.67;42.25;97100.44;4216061;28;6119;-63
2023/04/10 16:13:32;;;;;;;;;;;;;;;16.67;42.26;97101.25;4215661;28;5620;-64
2023/04/10 16:15:36;;;;;;;;;;;;;;;16.66;42.15;97104.97;4213818;28;5692;-63
2023/04/10 16:17:39;;;;;;;;;;;;;;;16.68;42.33;97099.41;4213173;28;5695;-64
2023/04/10 16:19:42;;;;;;;;;;;;;;;16.69;42.23;97101.84;4217849;28;5684;-63
2023/04/10 16:21:46;;;;;;;;;;;;;;;16.71;42.18;97089.09;4215749;28;5701;-64
2023/04/10 16:23:49;;;;;;;;;;;;;;;16.73;42.17;97075.53;4214052;28;5719;-64
2023/04/10 16:25:52;;;;;;;;;;;;;;;16.74;42.19;97077.97;4213670;28;5834;-64
2023/04/10 16:27:55;;;;;;;;;;;;;;;16.75;42.17;97076.09;4217600;28;5609;-64
2023/04/10 16:29:59;;;;;;;;;;;;;;;16.74;42.25;97077.16;4213249;28;6314;-64
2023/04/10 16:32:02;;;;;;;;;;;;;;;16.74;42.44;97079.81;4218056;28;5629;-64
2023/04/10 16:34:05;;;;;;;;;;;;;;;16.73;42.49;97080.88;4212888;28;5774;-63
2023/04/10 16:36:08;;;;;;;;;;;;;;;16.70;42.39;97076.78;4210773;28;5795;-64
2023/04/10 16:38:11;;;;;;;;;;;;;;;16.70;42.33;97066.13;4206472;28;5820;-64
2023/04/10 16:40:14;;;;;;;;;;;;;;;16.70;42.34;97067.97;4213080;28;7276;-63
2023/04/10 16:42:17;;;;;;;;;;;;;;;16.69;42.45;97072.50;4209809;28;5805;-63
2023/04/10 16:44:20;;;;;;;;;;;;;;;16.69;42.54;97074.34;4213613;28;5771;-63
2023/04/10 16:46:26;;;;;;;;;;;;;;;16.69;42.39;97080.50;4209610;28;5629;-64
2023/04/10 16:48:30;;;;;;;;;;;;;;;16.67;42.39;97081.75;4215617;28;5923;-64
2023/04/10 16:50:35;;;;;;;;;;;;;;;16.67;42.63;97089.75;4214703;28;5756;-64
2023/04/10 16:52:38;;;;;;;;;;;;;;;16.66;42.71;97096.94;4212431;28;5820;-64
2023/04/10 16:54:41;;;;;;;;;;;;;;;16.65;42.59;97094.47;4206775;28;5818;-63
2023/04/10 16:56:44;;;;;;;;;;;;;;;16.62;42.83;97097.59;4215767;28;5625;-64
2023/04/10 16:58:47;;;;;;;;;;;;;;;16.62;42.90;97090.41;4211509;28;5632;-64
2023/04/10 17:00:49;;;;;;;;;;;;;;;16.60;43.00;97093.31;4211512;28;5692;-63
2023/04/10 17:02:54;;;;;;;;;;;;;;;16.60;42.86;97097.81;4213856;28;5834;-63
2023/04/10 17:04:56;;;;;;;;;;;;;;;16.59;43.09;97090.88;4211248;28;5945;-65
2023/04/10 17:06:59;;;;;;;;;;;;;;;16.58;42.87;97091.91;4210813;28;5621;-63
2023/04/10 17:09:02;;;;;;;;;;;;;;;16.56;43.05;97102.81;4205483;28;5635;-63
2023/04/10 17:11:05;;;;;;;;;;;;;;;16.55;43.06;97095.03;4209676;28;5698;-63
2023/04/10 17:13:08;;;;;;;;;;;;;;;16.53;43.21;97105.09;4201341;28;5732;-63
2023/04/10 17:15:12;;;;;;;;;;;;;;;16.51;43.40;97102.66;4210545;28;5703;-63
2023/04/10 17:17:14;;;;;;;;;;;;;;;16.51;43.18;97107.16;4216815;28;5725;-63
2023/04/10 17:19:19;;;;;;;;;;;;;;;16.50;43.46;97102.88;4214400;28;6302;-64
2023/04/10 17:21:22;;;;;;;;;;;;;;;16.48;43.45;97111.09;4217696;28;5764;-65
2023/04/10 17:23:24;;;;;;;;;;;;;;;16.47;43.34;97100.66;4216845;28;5620;-66
2023/04/10 17:25:27;;;;;;;;;;;;;;;16.47;43.44;97098.00;4206700;28;5659;-64
2023/04/10 17:27:30;;;;;;;;;;;;;;;16.46;43.49;97096.34;4203153;28;5726;-67
2023/04/10 17:29:35;;;;;;;;;;;;;;;16.45;43.47;97092.06;4205755;28;5708;-67
2023/04/10 17:31:38;;;;;;;;;;;;;;;16.45;43.47;97082.22;4216100;28;6476;-62
2023/04/10 17:33:41;;;;;;;;;;;;;;;16.44;43.84;97096.59;4207245;28;5714;-62
2023/04/10 17:35:45;;;;;;;;;;;;;;;16.44;43.61;97085.09;4204443;28;5798;-69
2023/04/10 17:37:48;;;;;;;;;;;;;;;16.43;43.83;97080.81;4211729;28;5620;-69
2023/04/10 17:39:53;;;;;;;;;;;;;;;16.42;44.04;97084.47;4217906;28;5743;-68
2023/04/10 17:41:56;;;;;;;;;;;;;;;16.41;44.20;97082.84;4217393;28;6318;-72
2023/04/10 17:43:59;;;;;;;;;;;;;;;16.41;43.93;97085.53;4201151;28;7335;-74
2023/04/10 17:46:02;;;;;;;;;;;;;;;16.40;44.04;97075.88;4212149;28;5635;-75
2023/04/10 17:48:05;;;;;;;;;;;;;;;16.37;44.36;97066.50;4204971;28;5629;-71
2023/04/10 17:50:09;;;;;;;;;;;;;;;16.38;44.23;97070.78;4215805;28;5786;-72
2023/04/10 17:52:13;;;;;;;;;;;;;;;16.36;44.15;97064.84;4204694;28;5890;-71
2023/04/10 17:54:16;;;;;;;;;;;;;;;16.36;44.44;97058.72;4209610;28;5616;-72
2023/04/10 17:56:19;;;;;;;;;;;;;;;16.34;44.34;97060.78;4217443;28;5716;-72
2023/04/10 17:58:22;;;;;;;;;;;;;;;16.32;44.20;97057.53;4210705;28;5994;-71
2023/04/10 18:00:25;;;;;;;;;;;;;;;16.30;44.32;97058.53;4211857;28;6600;-70
2023/04/10 18:02:28;;;;;;;;;;;;;;;16.28;44.53;97057.97;4210469;28;5638;-73
2023/04/10 18:04:31;;;;;;;;;;;;;;;16.27;44.56;97066.19;4209389;28;5621;-73
2023/04/10 18:06:34;;;;;;;;;;;;;;;16.23;44.66;97068.50;4200527;28;5938;-73
2023/04/10 18:08:38;;;;;;;;;;;;;;;16.20;44.56;97066.28;4208700;28;5682;-74
2023/04/10 18:10:41;;;;;;;;;;;;;;;16.18;44.80;97060.31;4214666;28;5624;-73
2023/04/10 18:12:44;;;;;;;;;;;;;;;16.19;44.88;97067.28;4206808;28;5889;-73
2023/04/10 18:14:47;;;;;;;;;;;;;;;16.19;44.83;97069.13;4212377;28;5617;-73
2023/04/10 18:16:50;;;;;;;;;;;;;;;16.20;44.73;97071.63;4215075;28;5617;-75
2023/04/10 18:18:52;;;;;;;;;;;;;;;16.20;44.92;97076.94;4216381;28;5696;-79
2023/04/10 18:20:56;;;;;;;;;;;;;;;16.19;44.99;97080.63;4218954;28;5653;-77
2023/04/10 18:22:58;;;;;;;;;;;;;;;16.19;44.80;97072.63;4214868;28;5630;-69
2023/04/10 18:25:04;;;;;;;;;;;;;;;16.19;45.07;97069.13;4217256;28;5711;-69
2023/04/10 18:27:06;;;;;;;;;;;;;;;16.21;45.00;97061.75;4217495;28;5715;-68
2023/04/10 18:29:09;;;;;;;;;;;;;;;16.20;45.03;97060.13;4217008;28;5723;-69
2023/04/10 18:31:14;;;;;;;;;;;;;;;16.20;44.90;97068.94;4214073;28;5624;-72
2023/04/10 18:33:22;;;;;;;;;;;;;;;16.21;45.19;97073.25;4209748;28;5608;-68
2023/04/10 18:35:25;;;;;;;;;;;;;;;16.20;45.43;97076.94;4204773;28;5777;-65
2023/04/10 18:37:28;;;;;;;;;;;;;;;16.19;45.13;97072.63;4205210;28;5616;-68
2023/04/10 18:39:31;;;;;;;;;;;;;;;16.21;45.03;97083.09;4211461;28;5601;-65
2023/04/10 18:41:37;;;;;;;;;;;;;;;16.19;44.95;97085.16;4216841;28;5798;-71
2023/04/10 18:43:39;;;;;;;;;;;;;;;16.18;45.01;97091.53;4196882;28;5834;-66
2023/04/10 18:45:44;;;;;;;;;;;;;;;16.18;45.06;97102.19;4215854;28;5711;-63
2023/04/10 18:47:49;;;;;;;;;;;;;;;16.18;44.98;97116.34;4207996;28;5640;-63
2023/04/10 18:49:52;;;;;;;;;;;;;;;16.17;44.63;97109.38;4209278;28;6448;-65
2023/04/10 18:51:54;;;;;;;;;;;;;;;16.17;44.78;97120.03;4202528;28;5709;-65
2023/04/10 18:53:58;;;;;;;;;;;;;;;16.18;44.78;97123.53;4214206;28;5712;-64
2023/04/10 18:56:01;;;;;;;;;;;;;;;16.18;44.64;97121.66;4208034;28;5616;-65
2023/04/10 18:58:05;;;;;;;;;;;;;;;16.18;44.39;97118.19;4208631;28;5623;-66